Hauptseite
METAR-TAF:

METAR-TAF

Flughäfen :

Flughafen Ndola

Ndola, Sambia

Breite: 12-59-50S, Länge: 028-39-50E, Höhe: 1270 m

METAR: fehlend

Zeit: 07:08 (05:08 UTC)

Prognose

Neuester Wetterbericht von vor 19 Stunden und 8 Minuten, um 10:00 UTC
Gültige Prognose vom 24 um 12 UTC bis 25 um 18 UTC
Wind 10 kt aus Ost/Südost
Sichtweite 10 km oder mehr
Durchbrochene Bewölkung in der Höhe von 4500 ft
Ab 24 um 1700 UTC
Wind 5 kt aus Ost/Südost
Sichtweite 10 km oder mehr
keine Wolken unter 1500 m und keine Kumulonimbus oder Gewitterwolken
Übergehend zu
vom 25 um 04 UTC bis 25 um 06 UTC
Wind 10 kt aus Ost, Böen bis zu 20 kt
Sichtweite: 7000 m
Rauch
Übergehend zu
vom 25 um 08 UTC bis 25 um 10 UTC
Wind 10 kt aus Südost
Leicht bewölkt in der Höhe von 4000 ft

TAF: FLSK 241000Z 2412/2518 11010KT 9999 BKN045 FM241700 12005KT CAVOK BECMG 2504/2506 09010G20KT 7000 FU NSC BECMG 2508/2510 13010KT FEW040

Wetterbeobachtungen und Prognosen von mehr als 4000 Flughäfen (METAR und TAF Bericht).

Die verfügbaren Stationen werden durch gelbe und rote Markierungen auf der Karte dargestellt.

Führen Sie die Maus auf sie, um den Namen der Station zu sehen.

Darauf klicken, um die Beobachtung von Wetterbeobachtungen und Prognosen zu sehen.

Um die Karte zu ändern : klicken Sie auf den grünen Tasten mit einem schwarzen Kreuz Zum Vergrößern, auf den grünen Button mit einem Gedankenstrich zu verkleinern, oder auf die grünen Pfeile für benachbarte Karten.


METAR-TAF: